Time;durP1;ratioP1;P1;durP2;ratioP2;P2;SDS_P1;SDS_P2;PMS_P1;PMS_P2;Temp;Humidity;BMP_temperature;BMP_pressure;BME280_temperature;BME280_humidity;BME280_pressure;Samples;Min_cycle;Max_cycle;Signal;HPM_P1;HPM_P2
2023/12/20 00:02:22;;;;;;;1.38;0.60;;;16.40;47.10;;;;;;5172245;27;45176;-69
2023/12/20 00:04:49;;;;;;;0.65;0.40;;;16.30;47.30;;;;;;5172571;27;45201;-69
2023/12/20 00:07:16;;;;;;;0.50;0.50;;;16.30;47.40;;;;;;5172102;27;47581;-65
2023/12/20 00:09:43;;;;;;;0.50;0.50;;;16.20;48.00;;;;;;5172097;27;45482;-68
2023/12/20 00:12:11;;;;;;;0.60;0.43;;;16.20;47.70;;;;;;5172188;27;45423;-67
2023/12/20 00:14:38;;;;;;;0.43;0.40;;;16.20;47.60;;;;;;5172357;27;45413;-66
2023/12/20 00:17:07;;;;;;;0.50;0.50;;;16.30;47.70;;;;;;5171554;27;47253;-67
2023/12/20 00:19:34;;;;;;;0.47;0.40;;;16.30;47.70;;;;;;5171833;27;45331;-66
2023/12/20 00:22:01;;;;;;;0.85;0.50;;;16.30;47.70;;;;;;5171578;27;45309;-66
2023/12/20 00:24:28;;;;;;;0.95;0.50;;;16.30;47.60;;;;;;5171794;27;45210;-68
2023/12/20 00:26:55;;;;;;;2.85;0.70;;;16.30;47.60;;;;;;5171502;27;46619;-67
2023/12/20 00:29:22;;;;;;;0.60;0.52;;;16.30;47.50;;;;;;5171604;27;45334;-68
2023/12/20 00:31:49;;;;;;;2.30;0.60;;;16.30;47.60;;;;;;5166759;27;45483;-67
2023/12/20 00:34:17;;;;;;;0.70;0.65;;;16.40;47.60;;;;;;5172030;27;45230;-68
2023/12/20 00:36:44;;;;;;;4.78;0.65;;;16.40;47.60;;;;;;5171617;27;46626;-68
2023/12/20 00:39:10;;;;;;;0.50;0.50;;;16.40;47.70;;;;;;5170983;27;45355;-69
2023/12/20 00:41:37;;;;;;;1.02;0.63;;;16.40;47.70;;;;;;5170905;27;45374;-69
2023/12/20 00:44:05;;;;;;;1.33;0.65;;;16.30;47.80;;;;;;5171983;27;45306;-69
2023/12/20 00:46:32;;;;;;;0.40;0.40;;;16.30;47.90;;;;;;5171596;27;46165;-70
2023/12/20 00:48:59;;;;;;;1.05;0.60;;;16.30;47.90;;;;;;5171436;27;45266;-69
2023/12/20 00:51:27;;;;;;;4.60;0.60;;;16.30;48.00;;;;;;5171432;27;45406;-69
2023/12/20 00:53:54;;;;;;;0.90;0.70;;;16.30;47.90;;;;;;5171781;27;45345;-69
2023/12/20 00:56:21;;;;;;;1.80;0.60;;;16.30;48.00;;;;;;5171357;27;46377;-69
2023/12/20 00:58:48;;;;;;;0.50;0.50;;;16.30;48.00;;;;;;5171558;27;45193;-69
2023/12/20 01:01:15;;;;;;;0.50;0.50;;;16.30;48.00;;;;;;5171459;27;45204;-69
2023/12/20 01:03:42;;;;;;;1.65;0.60;;;16.30;48.00;;;;;;5171536;27;45331;-69
2023/12/20 01:06:09;;;;;;;0.50;0.38;;;16.20;48.50;;;;;;5171141;27;46279;-69
2023/12/20 01:08:38;;;;;;;0.52;0.52;;;16.20;48.00;;;;;;5171048;27;45387;-69
2023/12/20 01:11:05;;;;;;;0.75;0.75;;;16.20;47.90;;;;;;5171315;27;45254;-69
2023/12/20 01:13:31;;;;;;;0.40;0.40;;;16.20;48.00;;;;;;5171481;27;45594;-69
2023/12/20 01:15:58;;;;;;;0.70;0.70;;;16.20;48.10;;;;;;5170730;27;45455;-69
2023/12/20 01:18:25;;;;;;;1.15;0.73;;;16.20;48.00;;;;;;5170984;27;45280;-69
2023/12/20 01:20:52;;;;;;;0.82;0.50;;;16.20;48.00;;;;;;5171261;27;45336;-69
2023/12/20 01:23:19;;;;;;;0.40;0.40;;;16.10;48.10;;;;;;5170521;27;45338;-68
2023/12/20 01:25:47;;;;;;;0.60;0.60;;;16.10;48.10;;;;;;5170126;27;45491;-68
2023/12/20 01:28:14;;;;;;;0.65;0.50;;;16.10;48.10;;;;;;5167952;27;45343;-68
2023/12/20 01:30:41;;;;;;;1.65;0.50;;;16.10;48.10;;;;;;5171091;27;45366;-68
2023/12/20 01:33:07;;;;;;;1.65;0.73;;;16.10;48.10;;;;;;5168357;27;45322;-69
2023/12/20 01:35:34;;;;;;;0.30;0.30;;;16.10;48.10;;;;;;5170611;27;45203;-68
2023/12/20 01:38:01;;;;;;;0.45;0.40;;;16.10;48.20;;;;;;5171037;27;45355;-68
2023/12/20 01:40:28;;;;;;;0.40;0.40;;;16.10;48.30;;;;;;5170503;27;45296;-68
2023/12/20 01:43:03;;;;;;;0.30;0.30;;;16.00;48.20;;;;;;5170730;27;45410;-68
2023/12/20 01:45:29;;;;;;;1.33;0.95;;;16.00;48.10;;;;;;5170484;27;47612;-68
2023/12/20 01:47:58;;;;;;;0.57;0.57;;;16.00;48.20;;;;;;5155164;27;45171;-68
2023/12/20 01:50:24;;;;;;;0.50;0.50;;;16.00;48.20;;;;;;5150186;27;45270;-68
2023/12/20 01:52:52;;;;;;;0.40;0.40;;;16.00;48.20;;;;;;5148552;27;45397;-68
2023/12/20 01:55:19;;;;;;;0.60;0.60;;;16.00;48.20;;;;;;5149540;27;47285;-68
2023/12/20 01:57:47;;;;;;;0.32;0.25;;;16.00;48.30;;;;;;5149876;27;45436;-68
2023/12/20 02:00:16;;;;;;;1.27;0.73;;;15.90;48.30;;;;;;5150050;27;45192;-68
2023/12/20 02:02:42;;;;;;;0.47;0.47;;;15.90;48.30;;;;;;5149574;27;45482;-69
2023/12/20 02:05:09;;;;;;;0.60;0.40;;;15.90;48.30;;;;;;5149234;27;46793;-68
2023/12/20 02:07:36;;;;;;;0.30;0.30;;;15.90;48.30;;;;;;5149394;27;45245;-68
2023/12/20 02:10:04;;;;;;;0.43;0.43;;;15.90;48.30;;;;;;5148655;27;45204;-68
2023/12/20 02:12:31;;;;;;;0.70;0.50;;;15.90;48.40;;;;;;5149629;27;45222;-68
2023/12/20 02:14:58;;;;;;;0.40;0.40;;;15.90;48.30;;;;;;5149067;27;46714;-68
2023/12/20 02:17:26;;;;;;;0.30;0.30;;;15.90;48.40;;;;;;5149013;27;45346;-68
2023/12/20 02:19:53;;;;;;;0.35;0.35;;;15.80;48.30;;;;;;5149216;27;45210;-68
2023/12/20 02:22:21;;;;;;;0.55;0.55;;;15.80;48.30;;;;;;5156632;27;45219;-68
2023/12/20 02:24:48;;;;;;;0.55;0.45;;;15.80;48.30;;;;;;5169854;27;46262;-68
2023/12/20 02:27:15;;;;;;;0.60;0.60;;;15.80;48.40;;;;;;5169945;27;45423;-69
2023/12/20 02:29:41;;;;;;;0.50;0.50;;;15.80;48.40;;;;;;5170169;27;45328;-69
2023/12/20 02:32:08;;;;;;;0.70;0.40;;;15.80;48.40;;;;;;5170011;27;45334;-69
2023/12/20 02:34:35;;;;;;;0.60;0.60;;;15.80;48.50;;;;;;5169649;27;46395;-69
2023/12/20 02:37:02;;;;;;;0.40;0.30;;;15.70;48.40;;;;;;5169732;27;45395;-69
2023/12/20 02:39:30;;;;;;;0.30;0.30;;;15.70;48.50;;;;;;5169542;27;45309;-69
2023/12/20 02:41:57;;;;;;;0.32;0.32;;;15.70;48.50;;;;;;5170057;27;45385;-69
2023/12/20 02:44:24;;;;;;;0.52;0.50;;;15.70;48.50;;;;;;5169657;27;46288;-69
2023/12/20 02:46:51;;;;;;;0.32;0.32;;;15.70;48.50;;;;;;5169649;27;45269;-69
2023/12/20 02:49:18;;;;;;;0.55;0.40;;;15.70;48.50;;;;;;5169559;27;45475;-68
2023/12/20 02:51:44;;;;;;;0.30;0.30;;;15.70;48.50;;;;;;5169460;27;45294;-68
2023/12/20 02:54:11;;;;;;;0.40;0.40;;;15.70;48.50;;;;;;5168954;27;45221;-69
2023/12/20 02:56:40;;;;;;;0.32;0.22;;;15.70;48.50;;;;;;5169630;27;45162;-69
2023/12/20 02:59:08;;;;;;;0.40;0.40;;;15.70;48.50;;;;;;5169784;27;45274;-69
2023/12/20 03:01:35;;;;;;;1.45;0.40;;;15.70;48.50;;;;;;5169937;27;45256;-69
2023/12/20 03:04:02;;;;;;;0.40;0.40;;;15.60;49.20;;;;;;5171880;27;45495;-69
2023/12/20 03:06:29;;;;;;;0.30;0.30;;;15.60;48.60;;;;;;5173162;27;45183;-69
2023/12/20 03:08:55;;;;;;;0.30;0.30;;;15.60;48.60;;;;;;5173361;27;45396;-68
2023/12/20 03:11:22;;;;;;;0.75;0.40;;;15.60;48.70;;;;;;5173459;27;45454;-69
2023/12/20 03:13:50;;;;;;;0.52;0.35;;;15.60;48.70;;;;;;5172731;27;45482;-68
2023/12/20 03:16:17;;;;;;;0.28;0.28;;;15.60;48.70;;;;;;5173068;27;45158;-69
2023/12/20 03:18:44;;;;;;;0.47;0.40;;;15.60;48.70;;;;;;5173129;27;45281;-68
2023/12/20 03:21:11;;;;;;;0.50;0.50;;;15.60;48.70;;;;;;5173433;27;45178;-68
2023/12/20 03:23:38;;;;;;;0.68;0.50;;;15.50;48.70;;;;;;5172843;27;45421;-68
2023/12/20 03:26:07;;;;;;;0.35;0.30;;;15.50;48.70;;;;;;5153701;27;45404;-68
2023/12/20 03:28:33;;;;;;;0.28;0.28;;;15.50;48.80;;;;;;5151381;27;45176;-68
2023/12/20 03:31:02;;;;;;;0.57;0.57;;;15.50;48.80;;;;;;5151627;27;45141;-68
2023/12/20 03:33:29;;;;;;;0.60;0.60;;;15.50;48.80;;;;;;5151089;27;45451;-68
2023/12/20 03:35:56;;;;;;;0.30;0.30;;;15.50;48.80;;;;;;5151192;27;45455;-68
2023/12/20 03:38:23;;;;;;;0.55;0.47;;;15.50;48.90;;;;;;5148554;27;45354;-68
2023/12/20 03:40:50;;;;;;;0.30;0.30;;;15.50;48.80;;;;;;5130374;27;45541;-69
2023/12/20 03:43:17;;;;;;;0.30;0.30;;;15.50;48.90;;;;;;5129965;27;45653;-69
2023/12/20 03:45:44;;;;;;;0.32;0.32;;;15.40;48.80;;;;;;5130141;27;45291;-68
2023/12/20 03:48:12;;;;;;;0.25;0.25;;;15.40;48.80;;;;;;5130208;27;45343;-68
2023/12/20 03:50:39;;;;;;;1.15;0.32;;;15.40;48.90;;;;;;5130545;27;45275;-68
2023/12/20 03:53:06;;;;;;;0.50;0.47;;;15.40;48.90;;;;;;5129914;27;46361;-68
2023/12/20 03:55:33;;;;;;;0.52;0.30;;;15.40;49.00;;;;;;5130139;27;45346;-68
2023/12/20 03:58:00;;;;;;;0.50;0.50;;;15.40;49.00;;;;;;5129178;27;45309;-68
2023/12/20 04:00:26;;;;;;;0.40;0.40;;;15.40;49.10;;;;;;5130291;27;45277;-68
2023/12/20 04:02:53;;;;;;;0.60;0.60;;;15.40;49.10;;;;;;5148880;27;46399;-68
2023/12/20 04:05:21;;;;;;;0.50;0.50;;;15.30;49.00;;;;;;5150579;27;45133;-68
2023/12/20 04:07:50;;;;;;;0.30;0.30;;;15.30;49.10;;;;;;5150896;27;45293;-68
2023/12/20 04:10:17;;;;;;;0.30;0.30;;;15.40;49.30;;;;;;5150199;27;45349;-68
2023/12/20 04:12:43;;;;;;;0.40;0.40;;;15.40;49.30;;;;;;5150325;27;46307;-69
2023/12/20 04:15:11;;;;;;;0.80;0.50;;;15.40;49.20;;;;;;5149695;27;45236;-68
2023/12/20 04:17:38;;;;;;;0.30;0.30;;;15.50;49.10;;;;;;5150616;27;45314;-69
2023/12/20 04:20:06;;;;;;;0.20;0.20;;;15.50;48.90;;;;;;5150862;27;45423;-69
2023/12/20 04:22:34;;;;;;;0.30;0.30;;;15.60;48.90;;;;;;5150138;27;46332;-69
2023/12/20 04:25:02;;;;;;;0.35;0.30;;;15.70;48.70;;;;;;5150370;27;45267;-69
2023/12/20 04:27:28;;;;;;;0.40;0.40;;;15.80;48.50;;;;;;5150431;27;45475;-69
2023/12/20 04:29:55;;;;;;;0.17;0.17;;;15.90;48.30;;;;;;5150583;27;45468;-69
2023/12/20 04:32:22;;;;;;;0.28;0.28;;;16.10;48.10;;;;;;5150282;27;46302;-69
2023/12/20 04:34:49;;;;;;;0.20;0.20;;;16.20;47.80;;;;;;5150270;27;45318;-68
2023/12/20 04:37:16;;;;;;;0.30;0.30;;;16.30;47.60;;;;;;5150234;27;45286;-69
2023/12/20 04:39:44;;;;;;;0.30;0.30;;;16.40;47.50;;;;;;5150173;27;45286;-68
2023/12/20 04:42:11;;;;;;;0.22;0.22;;;16.50;47.20;;;;;;5150325;27;47585;-69
2023/12/20 04:44:38;;;;;;;0.30;0.30;;;16.60;47.00;;;;;;5150176;27;45202;-69
2023/12/20 04:47:05;;;;;;;0.20;0.20;;;16.70;46.90;;;;;;5150376;27;45172;-69
2023/12/20 04:49:32;;;;;;;0.30;0.30;;;16.80;47.30;;;;;;5150261;27;45127;-69
2023/12/20 04:51:59;;;;;;;0.30;0.30;;;16.90;46.50;;;;;;5149999;27;46411;-69
2023/12/20 04:54:25;;;;;;;0.30;0.30;;;17.00;46.30;;;;;;5150644;27;45477;-69
2023/12/20 04:56:54;;;;;;;0.40;0.35;;;17.10;46.20;;;;;;5150475;27;45313;-69
2023/12/20 04:59:20;;;;;;;0.30;0.30;;;17.20;46.00;;;;;;5150944;27;45331;-69
2023/12/20 05:01:48;;;;;;;0.20;0.20;;;17.30;45.80;;;;;;5160180;27;46780;-69
2023/12/20 05:04:14;;;;;;;0.20;0.20;;;17.40;45.80;;;;;;5171657;27;45365;-69
2023/12/20 05:06:41;;;;;;;0.30;0.30;;;17.50;45.60;;;;;;5171857;27;45238;-69
2023/12/20 05:09:09;;;;;;;0.10;0.10;;;17.50;45.50;;;;;;5171570;27;45302;-69
2023/12/20 05:11:35;;;;;;;0.52;0.30;;;17.60;45.40;;;;;;5171431;27;45508;-69
2023/12/20 05:14:04;;;;;;;0.20;0.20;;;17.70;45.30;;;;;;5173888;27;45240;-69
2023/12/20 05:16:30;;;;;;;0.20;0.20;;;17.70;45.10;;;;;;5168408;27;45392;-69
2023/12/20 05:18:59;;;;;;;0.20;0.20;;;17.80;45.00;;;;;;5171546;27;45297;-68
2023/12/20 05:21:26;;;;;;;0.30;0.30;;;17.90;45.10;;;;;;5170414;27;46952;-69
2023/12/20 05:23:53;;;;;;;0.43;0.43;;;17.90;44.90;;;;;;5170279;27;45566;-69
2023/12/20 05:26:20;;;;;;;0.20;0.20;;;18.00;44.90;;;;;;5170974;27;45353;-69
2023/12/20 05:28:47;;;;;;;0.22;0.22;;;18.00;44.80;;;;;;5171043;27;45367;-69
2023/12/20 05:31:15;;;;;;;0.20;0.20;;;18.10;44.70;;;;;;5170471;27;46391;-69
2023/12/20 05:33:42;;;;;;;0.17;0.10;;;18.10;44.60;;;;;;5170476;27;45224;-69
2023/12/20 05:36:11;;;;;;;0.20;0.20;;;18.10;44.60;;;;;;5170785;27;45338;-69
2023/12/20 05:38:38;;;;;;;0.20;0.20;;;18.20;44.50;;;;;;5170817;27;45320;-69
2023/12/20 05:41:04;;;;;;;0.30;0.30;;;18.20;44.50;;;;;;5170718;27;46325;-69
2023/12/20 05:43:31;;;;;;;0.70;0.30;;;18.30;45.00;;;;;;5170842;27;45264;-69
2023/12/20 05:45:58;;;;;;;0.30;0.30;;;18.30;44.40;;;;;;5170998;27;45206;-69
2023/12/20 05:48:27;;;;;;;0.20;0.13;;;18.30;44.30;;;;;;5171157;27;45516;-69
2023/12/20 05:50:54;;;;;;;0.38;0.38;;;18.40;44.30;;;;;;5170703;27;46418;-69
2023/12/20 05:53:21;;;;;;;1.25;0.20;;;18.40;44.20;;;;;;5170339;27;45359;-69
2023/12/20 05:55:48;;;;;;;0.30;0.30;;;18.40;44.20;;;;;;5170909;27;45199;-69
2023/12/20 05:58:15;;;;;;;0.20;0.20;;;18.50;44.80;;;;;;5171032;27;45457;-69
2023/12/20 06:00:41;;;;;;;0.40;0.40;;;18.50;44.70;;;;;;5167927;27;45732;-69
2023/12/20 06:03:10;;;;;;;0.30;0.30;;;18.60;44.10;;;;;;5159452;27;45315;-69
2023/12/20 06:05:38;;;;;;;0.20;0.20;;;18.60;44.10;;;;;;5158653;27;45492;-69
2023/12/20 06:08:06;;;;;;;0.60;0.20;;;18.60;44.00;;;;;;5149007;27;45365;-69
2023/12/20 06:10:32;;;;;;;0.13;0.13;;;18.60;44.00;;;;;;5149394;27;45443;-69
2023/12/20 06:13:00;;;;;;;0.30;0.30;;;18.70;43.90;;;;;;5149178;27;45313;-69
2023/12/20 06:15:27;;;;;;;0.10;0.10;;;18.70;43.90;;;;;;5149215;27;45258;-69
2023/12/20 06:17:54;;;;;;;1.02;0.13;;;18.70;43.90;;;;;;5149626;27;45190;-69
2023/12/20 06:20:21;;;;;;;0.22;0.20;;;18.70;43.80;;;;;;5149368;27;46699;-69
2023/12/20 06:22:49;;;;;;;0.28;0.28;;;18.80;43.80;;;;;;5160028;27;45309;-69
2023/12/20 06:25:16;;;;;;;0.30;0.30;;;18.80;43.80;;;;;;5170349;27;45235;-69
2023/12/20 06:27:43;;;;;;;0.20;0.20;;;18.80;43.70;;;;;;5170233;27;45206;-69
2023/12/20 06:30:10;;;;;;;0.52;0.30;;;18.80;43.70;;;;;;5169983;27;46841;-69
2023/12/20 06:32:37;;;;;;;0.22;0.22;;;18.90;43.80;;;;;;5170082;27;45397;-69
2023/12/20 06:35:05;;;;;;;0.40;0.40;;;18.90;43.80;;;;;;5169996;27;45285;-69
2023/12/20 06:37:32;;;;;;;0.30;0.30;;;18.90;43.70;;;;;;5169246;27;45449;-69
2023/12/20 06:40:01;;;;;;;0.30;0.30;;;18.90;43.70;;;;;;5169270;27;45464;-69
2023/12/20 06:42:27;;;;;;;0.22;0.22;;;18.90;43.70;;;;;;5169409;27;45438;-70
2023/12/20 06:44:54;;;;;;;1.35;0.40;;;18.90;43.70;;;;;;5169739;27;45402;-69
2023/12/20 06:47:24;;;;;;;0.25;0.25;;;19.00;43.70;;;;;;5169964;27;45551;-69
2023/12/20 06:49:51;;;;;;;0.98;0.30;;;19.00;43.60;;;;;;5169348;27;45497;-69
2023/12/20 06:52:18;;;;;;;0.40;0.28;;;19.00;43.70;;;;;;5168809;27;45362;-69
2023/12/20 06:54:45;;;;;;;0.15;0.15;;;19.00;43.60;;;;;;5169525;27;45305;-69
2023/12/20 06:57:13;;;;;;;0.30;0.30;;;19.00;43.60;;;;;;5169930;27;45197;-69
2023/12/20 06:59:40;;;;;;;0.15;0.15;;;19.10;43.60;;;;;;5169586;27;47331;-69
2023/12/20 07:02:07;;;;;;;0.20;0.20;;;19.10;43.60;;;;;;5169450;27;45250;-69
2023/12/20 07:04:34;;;;;;;0.28;0.20;;;19.10;43.60;;;;;;5169634;27;45271;-69
2023/12/20 07:07:01;;;;;;;0.20;0.20;;;19.10;43.50;;;;;;5169673;27;45401;-68
2023/12/20 07:09:28;;;;;;;0.80;0.20;;;19.10;43.50;;;;;;5169181;27;45215;-68
2023/12/20 07:11:54;;;;;;;0.10;0.10;;;19.10;43.50;;;;;;5169396;27;45237;-68
2023/12/20 07:14:23;;;;;;;0.22;0.22;;;19.20;43.50;;;;;;5169366;27;45581;-68
2023/12/20 07:16:49;;;;;;;0.25;0.25;;;19.10;43.50;;;;;;5169461;27;45394;-68
2023/12/20 07:19:16;;;;;;;0.20;0.20;;;19.20;43.40;;;;;;5169003;27;45219;-68
2023/12/20 07:21:43;;;;;;;1.75;0.20;;;19.20;43.40;;;;;;5169146;27;45267;-68
2023/12/20 07:24:10;;;;;;;0.30;0.30;;;19.20;43.40;;;;;;5169169;27;45261;-68
2023/12/20 07:26:38;;;;;;;0.32;0.32;;;19.20;43.40;;;;;;5169174;27;45430;-68
2023/12/20 07:29:06;;;;;;;0.32;0.32;;;19.20;43.40;;;;;;5168875;27;46189;-68
2023/12/20 07:31:35;;;;;;;0.30;0.30;;;19.20;43.50;;;;;;5168840;27;45199;-68
2023/12/20 07:34:01;;;;;;;0.45;0.30;;;19.20;43.50;;;;;;5168466;27;45316;-68
2023/12/20 07:36:29;;;;;;;0.57;0.38;;;19.20;43.50;;;;;;5169041;27;45440;-68
2023/12/20 07:38:55;;;;;;;0.98;0.32;;;19.10;43.60;;;;;;5151965;27;49267;-68
2023/12/20 07:41:23;;;;;;;0.20;0.20;;;19.10;43.60;;;;;;5147608;27;45194;-67
2023/12/20 07:43:50;;;;;;;0.20;0.20;;;19.10;43.70;;;;;;5148164;27;45381;-68
2023/12/20 07:46:18;;;;;;;0.30;0.30;;;19.10;43.80;;;;;;5147896;27;45529;-67
2023/12/20 07:48:46;;;;;;;0.20;0.20;;;19.10;43.80;;;;;;5147744;27;46392;-68
2023/12/20 07:51:13;;;;;;;0.30;0.30;;;19.10;43.90;;;;;;5150422;27;45266;-68
2023/12/20 07:53:40;;;;;;;0.85;0.40;;;19.00;43.90;;;;;;5151321;27;45197;-68
2023/12/20 07:56:15;;;;;;;0.20;0.20;;;19.00;44.00;;;;;;5151540;27;45259;-68
2023/12/20 07:58:42;;;;;;;0.30;0.30;;;19.00;44.10;;;;;;5151149;27;46638;-68
2023/12/20 08:01:08;;;;;;;0.22;0.20;;;18.90;44.20;;;;;;5158983;27;45550;-69
2023/12/20 08:03:35;;;;;;;0.20;0.20;;;18.90;44.30;;;;;;5160464;27;45362;-69
2023/12/20 08:06:04;;;;;;;2.00;0.40;;;18.80;44.40;;;;;;5171683;27;45483;-69
2023/12/20 08:08:31;;;;;;;0.40;0.40;;;18.80;44.50;;;;;;5157759;27;46879;-68
2023/12/20 08:11:00;;;;;;;0.30;0.30;;;18.80;44.60;;;;;;5164612;27;45343;-68
2023/12/20 08:13:27;;;;;;;0.30;0.30;;;18.70;45.30;;;;;;5160005;27;45354;-69
2023/12/20 08:15:54;;;;;;;0.30;0.30;;;18.70;44.80;;;;;;5166596;27;45131;-69
2023/12/20 08:18:20;;;;;;;0.20;0.20;;;18.70;45.00;;;;;;5161644;27;46288;-67
2023/12/20 08:20:48;;;;;;;1.83;0.40;;;18.70;44.90;;;;;;5156616;27;45374;-68
2023/12/20 08:23:16;;;;;;;0.50;0.30;;;18.70;44.90;;;;;;5156049;27;45300;-67
2023/12/20 08:25:43;;;;;;;0.30;0.30;;;18.70;44.90;;;;;;5164437;27;45193;-68
2023/12/20 08:28:10;;;;;;;0.20;0.20;;;18.80;44.90;;;;;;5166624;27;46354;-68
2023/12/20 08:30:37;;;;;;;0.77;0.30;;;18.80;44.70;;;;;;5169798;27;45422;-68
2023/12/20 08:33:04;;;;;;;0.20;0.20;;;18.90;44.60;;;;;;5164735;27;45482;-68
2023/12/20 08:35:31;;;;;;;0.20;0.10;;;19.00;44.50;;;;;;5152324;27;45302;-68
2023/12/20 08:37:58;;;;;;;0.50;0.45;;;19.00;44.50;;;;;;5165669;27;45461;-67
2023/12/20 08:40:26;;;;;;;0.22;0.22;;;19.00;44.40;;;;;;5150227;27;45198;-67
2023/12/20 08:42:53;;;;;;;0.35;0.30;;;19.10;44.30;;;;;;5155664;27;45573;-68
2023/12/20 08:45:20;;;;;;;0.30;0.30;;;19.10;44.30;;;;;;5163830;27;45327;-67
2023/12/20 08:47:47;;;;;;;0.90;0.30;;;19.10;44.20;;;;;;5159636;27;47532;-67
2023/12/20 08:50:15;;;;;;;0.30;0.30;;;19.20;44.20;;;;;;5151084;27;45229;-67
2023/12/20 08:52:42;;;;;;;0.20;0.20;;;19.20;44.10;;;;;;5159177;27;45499;-67
2023/12/20 08:55:09;;;;;;;0.30;0.30;;;19.20;44.00;;;;;;5152436;27;45416;-67
2023/12/20 08:57:37;;;;;;;0.30;0.30;;;19.30;44.00;;;;;;5158607;27;47766;-67
2023/12/20 09:00:07;;;;;;;0.43;0.30;;;19.30;44.00;;;;;;5163071;27;45319;-67
2023/12/20 09:02:35;;;;;;;0.20;0.20;;;19.30;44.00;;;;;;5151598;27;45539;-68
2023/12/20 09:05:03;;;;;;;0.43;0.43;;;19.30;43.90;;;;;;5151480;27;45346;-66
2023/12/20 09:07:31;;;;;;;0.30;0.30;;;19.40;43.90;;;;;;5156765;27;45716;-66
2023/12/20 09:09:58;;;;;;;0.40;0.38;;;19.40;43.80;;;;;;5152883;27;45431;-66
2023/12/20 09:12:25;;;;;;;0.30;0.30;;;19.40;43.80;;;;;;5153272;27;45561;-66
2023/12/20 09:14:53;;;;;;;2.72;0.32;;;19.40;43.80;;;;;;5149528;27;45402;-67
2023/12/20 09:17:22;;;;;;;0.20;0.20;;;19.50;44.10;;;;;;5153363;27;46600;-68
2023/12/20 09:19:49;;;;;;;0.22;0.22;;;19.50;43.80;;;;;;5165254;27;45395;-66
2023/12/20 09:22:16;;;;;;;0.30;0.30;;;19.50;43.70;;;;;;5154602;27;45453;-69
2023/12/20 09:24:43;;;;;;;0.40;0.40;;;19.50;43.80;;;;;;5163682;27;45497;-66
2023/12/20 09:27:13;;;;;;;0.25;0.25;;;19.50;43.80;;;;;;5148184;27;46410;-67
2023/12/20 09:29:40;;;;;;;0.30;0.30;;;19.40;43.80;;;;;;5154268;27;45342;-65
2023/12/20 09:32:08;;;;;;;0.20;0.20;;;19.40;43.80;;;;;;5152291;27;45362;-67
2023/12/20 09:34:35;;;;;;;0.47;0.47;;;19.40;43.90;;;;;;5149872;27;45529;-68
2023/12/20 09:37:03;;;;;;;1.65;0.47;;;19.40;43.90;;;;;;5160894;27;46380;-67
2023/12/20 09:39:31;;;;;;;0.45;0.38;;;19.40;44.00;;;;;;5154068;27;45467;-68
2023/12/20 09:42:01;;;;;;;0.40;0.40;;;19.30;44.00;;;;;;5161340;27;45524;-67
2023/12/20 09:44:28;;;;;;;0.43;0.40;;;19.30;44.20;;;;;;5153389;27;45457;-68
2023/12/20 09:46:56;;;;;;;0.32;0.30;;;19.30;44.90;;;;;;5152070;27;46271;-67
2023/12/20 09:49:24;;;;;;;0.70;0.40;;;19.20;44.30;;;;;;5162665;27;45427;-66
2023/12/20 09:51:51;;;;;;;0.30;0.22;;;19.20;44.40;;;;;;5155009;27;45416;-66
2023/12/20 09:54:18;;;;;;;0.40;0.40;;;19.20;44.50;;;;;;5158525;27;45448;-66
2023/12/20 09:56:45;;;;;;;0.40;0.40;;;19.20;44.50;;;;;;5153997;27;45459;-66
2023/12/20 09:59:12;;;;;;;0.40;0.40;;;19.20;44.60;;;;;;5149679;27;45290;-67
2023/12/20 10:01:39;;;;;;;0.40;0.40;;;19.10;44.60;;;;;;5155256;27;45428;-66
2023/12/20 10:04:08;;;;;;;1.13;0.50;;;19.10;44.90;;;;;;5156854;27;45543;-65
2023/12/20 10:06:37;;;;;;;0.63;0.63;;;19.10;44.70;;;;;;5163013;27;45770;-67
2023/12/20 10:09:05;;;;;;;1.52;0.50;;;19.10;44.80;;;;;;5152824;27;45293;-66
2023/12/20 10:11:32;;;;;;;0.63;0.47;;;19.00;44.90;;;;;;5152865;27;45453;-66
2023/12/20 10:14:01;;;;;;;0.90;0.60;;;19.00;44.90;;;;;;5157872;27;45394;-66
2023/12/20 10:16:28;;;;;;;1.23;0.60;;;19.00;45.60;;;;;;5155348;27;46872;-65
2023/12/20 10:18:54;;;;;;;1.75;1.10;;;18.90;45.00;;;;;;5159530;27;45351;-66
2023/12/20 10:21:22;;;;;;;0.77;0.73;;;18.90;45.10;;;;;;5154534;27;45201;-64
2023/12/20 10:23:50;;;;;;;1.30;1.20;;;18.90;45.00;;;;;;5156634;27;45450;-65
2023/12/20 10:26:20;;;;;;;1.50;1.05;;;19.00;45.00;;;;;;5155287;27;45483;-67
2023/12/20 10:28:47;;;;;;;1.55;1.42;;;19.00;44.90;;;;;;5164384;27;45444;-71
2023/12/20 10:31:27;;;;;;;1.33;0.88;;;19.10;44.80;;;;;;5169063;27;45323;-68
2023/12/20 10:33:54;;;;;;;2.47;1.30;;;19.10;44.60;;;;;;5169877;27;45238;-68
2023/12/20 10:36:26;;;;;;;2.83;1.55;;;19.20;44.50;;;;;;5169103;27;45311;-68
2023/12/20 10:38:55;;;;;;;1.95;1.40;;;19.30;44.40;;;;;;5168995;27;45203;-68
2023/12/20 10:41:25;;;;;;;1.75;1.02;;;19.30;44.20;;;;;;5169298;27;45193;-68
2023/12/20 10:43:52;;;;;;;1.92;1.38;;;19.40;44.10;;;;;;5169249;27;45461;-68
2023/12/20 10:46:19;;;;;;;2.58;1.25;;;19.50;44.00;;;;;;5169175;27;45249;-68
2023/12/20 10:48:46;;;;;;;1.90;1.40;;;19.60;43.90;;;;;;5169018;27;45209;-68
2023/12/20 10:51:13;;;;;;;3.83;1.50;;;19.50;43.70;;;;;;5169068;27;45397;-68
2023/12/20 10:53:40;;;;;;;1.60;1.33;;;19.60;43.70;;;;;;5152245;27;45401;-68
2023/12/20 10:56:09;;;;;;;3.63;1.65;;;19.70;43.60;;;;;;5147857;27;46540;-68
2023/12/20 10:58:35;;;;;;;1.38;1.27;;;19.70;43.50;;;;;;5148243;27;45244;-68
2023/12/20 11:01:02;;;;;;;1.42;1.30;;;19.80;43.50;;;;;;5148353;27;45451;-68
2023/12/20 11:03:29;;;;;;;1.35;1.23;;;19.80;43.30;;;;;;5148265;27;45258;-68
2023/12/20 11:06:00;;;;;;;1.17;1.10;;;19.80;43.30;;;;;;5147802;27;46183;-68
2023/12/20 11:08:29;;;;;;;1.48;1.30;;;19.90;43.30;;;;;;5147977;27;45433;-68
2023/12/20 11:10:58;;;;;;;2.58;1.10;;;19.90;43.20;;;;;;5148004;27;45377;-68
2023/12/20 11:13:29;;;;;;;1.85;1.15;;;19.90;43.20;;;;;;5148298;27;45426;-67
2023/12/20 11:15:56;;;;;;;6.85;1.20;;;20.00;43.20;;;;;;5159666;27;46670;-71
2023/12/20 11:18:30;;;;;;;1.50;1.20;;;20.20;43.50;;;;;;5147866;27;45406;-69
2023/12/20 11:20:57;;;;;;;3.55;1.17;;;20.40;43.50;;;;;;5157144;27;45371;-67
2023/12/20 11:23:24;;;;;;;2.58;1.15;;;20.50;42.50;;;;;;5155619;27;45351;-72
2023/12/20 11:25:53;;;;;;;1.30;1.17;;;20.60;42.50;;;;;;5154313;27;45460;-69
2023/12/20 11:28:22;;;;;;;1.25;1.00;;;20.70;42.30;;;;;;5154349;27;45388;-67
2023/12/20 11:30:51;;;;;;;2.97;1.08;;;20.70;42.10;;;;;;5160081;27;45244;-67
2023/12/20 11:33:21;;;;;;;3.95;1.50;;;20.80;42.20;;;;;;5150790;27;45467;-72
2023/12/20 11:35:48;;;;;;;8.38;1.73;;;20.90;41.90;;;;;;5163178;27;46523;-68
2023/12/20 11:38:15;;;;;;;7.93;1.85;;;21.00;42.00;;;;;;5166168;27;45394;-68
2023/12/20 11:40:42;;;;;;;10.43;1.73;;;21.00;41.70;;;;;;5151643;27;45436;-66
2023/12/20 11:43:09;;;;;;;2.78;1.50;;;21.00;41.80;;;;;;5150933;27;45445;-71
2023/12/20 11:45:36;;;;;;;3.88;1.48;;;21.10;41.50;;;;;;5161118;27;46338;-67
2023/12/20 11:48:05;;;;;;;4.07;1.60;;;21.10;41.40;;;;;;5156897;27;45391;-68
2023/12/20 11:50:31;;;;;;;6.65;2.03;;;21.10;41.10;;;;;;5168431;27;45208;-69
2023/12/20 11:52:58;;;;;;;4.22;1.92;;;21.20;41.40;;;;;;5154927;27;45621;-71
2023/12/20 11:55:25;;;;;;;3.25;1.85;;;21.20;41.10;;;;;;5151111;27;45374;-69
2023/12/20 11:57:52;;;;;;;2.67;1.85;;;21.30;41.40;;;;;;5153006;27;45566;-70
2023/12/20 12:00:19;;;;;;;4.35;2.00;;;21.30;41.30;;;;;;5157717;27;45382;-69
2023/12/20 12:02:56;;;;;;;2.00;1.50;;;21.30;41.40;;;;;;5152454;27;45287;-70
2023/12/20 12:05:24;;;;;;;4.15;1.90;;;21.30;42.30;;;;;;5160017;27;45451;-70
2023/12/20 12:07:51;;;;;;;3.97;1.95;;;21.20;41.80;;;;;;5158712;27;45447;-69
2023/12/20 12:10:18;;;;;;;4.30;2.08;;;21.10;42.40;;;;;;5150024;27;45332;-72
2023/12/20 12:12:45;;;;;;;2.55;2.03;;;21.10;42.60;;;;;;5165856;27;45420;-77
2023/12/20 12:15:12;;;;;;;7.40;1.95;;;21.10;42.70;;;;;;5165257;27;45451;-69
2023/12/20 12:17:39;;;;;;;5.60;1.50;;;21.20;42.80;;;;;;5159500;27;45367;-70
2023/12/20 12:20:07;;;;;;;7.50;2.05;;;21.20;42.70;;;;;;5164327;27;45420;-75
2023/12/20 12:22:36;;;;;;;4.40;2.40;;;21.20;42.70;;;;;;5162411;27;45422;-77
2023/12/20 12:25:10;;;;;;;9.38;2.30;;;21.20;43.00;;;;;;5165533;27;46367;-74
2023/12/20 12:27:38;;;;;;;21.45;3.58;;;21.20;43.20;;;;;;5157777;27;45279;-74
2023/12/20 12:30:07;;;;;;;10.60;2.58;;;21.20;43.10;;;;;;5165458;27;45557;-76
2023/12/20 12:32:34;;;;;;;8.32;2.35;;;21.20;42.80;;;;;;5156422;27;45417;-76
2023/12/20 12:35:00;;;;;;;9.07;1.88;;;21.10;42.60;;;;;;5149232;27;46309;-74
2023/12/20 12:37:27;;;;;;;9.23;1.92;;;21.00;42.50;;;;;;5155248;27;45332;-72
2023/12/20 12:39:56;;;;;;;5.88;3.00;;;21.00;42.70;;;;;;5158046;27;45395;-71
2023/12/20 12:42:25;;;;;;;8.80;2.80;;;21.00;42.80;;;;;;5167821;27;45430;-73
2023/12/20 12:44:52;;;;;;;10.18;3.10;;;21.00;42.80;;;;;;5154329;27;46806;-76
2023/12/20 12:47:19;;;;;;;7.05;2.70;;;20.90;43.20;;;;;;5163451;27;45538;-72